GBAFG EGNV-EGCC
Flight info
| Callsign | GBAFG |
|---|---|
| Flight time | 0h 49m |
| Altitude | 8000 |
| Route | EGNV GASKO SETEL ROSUN SETE1M EGCC |
| Aircraft | BE36/L-SBDFGM3RWXY/LB1 |
Departure
| Time | 2026-05-06 15:04 |
|---|---|
| Airport | Teesside International Airport (EGNV) |
Arrival
| Time | 2026-05-06 15:53 |
|---|---|
| Airport | Manchester Airport (EGCC) |
| Time | Latitude | Longitude | Altitude | Speed | Heading |
|---|---|---|---|---|---|
| 2026-05-06 14:42 | 54.51466 | -1.42496 | 122 ft | 0 kts | 282° |
| 2026-05-06 14:57 | 54.51463 | -1.42522 | 121 ft | 6 kts | 215° |
| 2026-05-06 14:57 | 54.51412 | -1.42570 | 120 ft | 12 kts | 197° |
| 2026-05-06 14:57 | 54.51313 | -1.42640 | 122 ft | 18 kts | 216° |
| 2026-05-06 14:58 | 54.51243 | -1.42836 | 121 ft | 20 kts | 240° |
| 2026-05-06 14:58 | 54.51168 | -1.43046 | 121 ft | 21 kts | 239° |
| 2026-05-06 14:58 | 54.51071 | -1.43192 | 121 ft | 17 kts | 217° |
| 2026-05-06 14:58 | 54.51008 | -1.43370 | 120 ft | 18 kts | 236° |
| 2026-05-06 14:59 | 54.50943 | -1.43555 | 118 ft | 18 kts | 238° |
| 2026-05-06 14:59 | 54.50855 | -1.43702 | 121 ft | 17 kts | 213° |
| 2026-05-06 14:59 | 54.50784 | -1.43761 | 121 ft | 17 kts | 187° |
| 2026-05-06 14:59 | 54.50683 | -1.43815 | 121 ft | 15 kts | 219° |
| 2026-05-06 15:00 | 54.50618 | -1.43937 | 119 ft | 13 kts | 230° |
| 2026-05-06 15:00 | 54.50563 | -1.44043 | 121 ft | 11 kts | 227° |
| 2026-05-06 15:00 | 54.50494 | -1.44173 | 121 ft | 18 kts | 228° |
| 2026-05-06 15:00 | 54.50399 | -1.44343 | 119 ft | 18 kts | 212° |
| 2026-05-06 15:01 | 54.50299 | -1.44342 | 119 ft | 6 kts | 149° |
| 2026-05-06 15:01 | 54.50298 | -1.44341 | 119 ft | 0 kts | 145° |
| 2026-05-06 15:03 | 54.50250 | -1.44184 | 122 ft | 16 kts | 65° |
| 2026-05-06 15:03 | 54.50341 | -1.44023 | 122 ft | 34 kts | 46° |
| 2026-05-06 15:03 | 54.50642 | -1.43466 | 121 ft | 90 kts | 46° |
| 2026-05-06 15:04 | 54.51128 | -1.42538 | 273 ft | 110 kts | 48° |
| 2026-05-06 15:04 | 54.51667 | -1.41537 | 582 ft | 121 kts | 46° |
| 2026-05-06 15:04 | 54.52401 | -1.40822 | 944 ft | 123 kts | 1° |
| 2026-05-06 15:04 | 54.53166 | -1.41262 | 1408 ft | 114 kts | 322° |
| 2026-05-06 15:05 | 54.53636 | -1.42386 | 1666 ft | 125 kts | 285° |
| 2026-05-06 15:05 | 54.53664 | -1.43904 | 1935 ft | 131 kts | 256° |
| 2026-05-06 15:05 | 54.53236 | -1.45181 | 2419 ft | 124 kts | 225° |
| 2026-05-06 15:05 | 54.52472 | -1.45868 | 2760 ft | 128 kts | 193° |
| 2026-05-06 15:06 | 54.51613 | -1.46132 | 3141 ft | 127 kts | 193° |
| 2026-05-06 15:06 | 54.50714 | -1.46447 | 3412 ft | 132 kts | 193° |
| 2026-05-06 15:06 | 54.49816 | -1.46764 | 3748 ft | 131 kts | 193° |
| 2026-05-06 15:06 | 54.48933 | -1.46950 | 4078 ft | 130 kts | 173° |
| 2026-05-06 15:07 | 54.48049 | -1.46713 | 4420 ft | 126 kts | 183° |
| 2026-05-06 15:07 | 54.47248 | -1.47156 | 4772 ft | 121 kts | 221° |
| 2026-05-06 15:07 | 54.46855 | -1.48363 | 5112 ft | 116 kts | 264° |
| 2026-05-06 15:07 | 54.46552 | -1.49587 | 5254 ft | 130 kts | 211° |
| 2026-05-06 15:08 | 54.45706 | -1.50067 | 5577 ft | 126 kts | 201° |
| 2026-05-06 15:08 | 54.44797 | -1.50586 | 5574 ft | 147 kts | 191° |
| 2026-05-06 15:08 | 54.43823 | -1.50874 | 5891 ft | 138 kts | 199° |
| 2026-05-06 15:08 | 54.42919 | -1.51342 | 6171 ft | 138 kts | 197° |
| 2026-05-06 15:09 | 54.41955 | -1.51723 | 6347 ft | 142 kts | 194° |
| 2026-05-06 15:09 | 54.41007 | -1.52062 | 6639 ft | 138 kts | 193° |
| 2026-05-06 15:09 | 54.40047 | -1.52389 | 6812 ft | 142 kts | 198° |
| 2026-05-06 15:09 | 54.39156 | -1.53148 | 6991 ft | 143 kts | 217° |
| 2026-05-06 15:10 | 54.38411 | -1.54206 | 7229 ft | 139 kts | 223° |
| 2026-05-06 15:10 | 54.37701 | -1.55343 | 7405 ft | 141 kts | 225° |
| 2026-05-06 15:10 | 54.36996 | -1.56525 | 7584 ft | 140 kts | 225° |
| 2026-05-06 15:10 | 54.36278 | -1.57631 | 7750 ft | 141 kts | 221° |
| 2026-05-06 15:11 | 54.35584 | -1.58818 | 7849 ft | 143 kts | 245° |
| 2026-05-06 15:11 | 54.35852 | -1.60383 | 7854 ft | 150 kts | 319° |
| 2026-05-06 15:11 | 54.36826 | -1.61077 | 7885 ft | 155 kts | 335° |
| 2026-05-06 15:11 | 54.37620 | -1.62304 | 7912 ft | 156 kts | 295° |
| 2026-05-06 15:12 | 54.37707 | -1.64041 | 8049 ft | 152 kts | 253° |
| 2026-05-06 15:12 | 54.37079 | -1.65566 | 7987 ft | 161 kts | 231° |
| 2026-05-06 15:12 | 54.36340 | -1.67074 | 7926 ft | 168 kts | 231° |
| 2026-05-06 15:12 | 54.35594 | -1.68625 | 7937 ft | 167 kts | 233° |
| 2026-05-06 15:13 | 54.34921 | -1.70213 | 7945 ft | 163 kts | 237° |
| 2026-05-06 15:13 | 54.34246 | -1.71803 | 7903 ft | 165 kts | 233° |
| 2026-05-06 15:13 | 54.33569 | -1.73352 | 7918 ft | 165 kts | 233° |
| 2026-05-06 15:13 | 54.32859 | -1.74900 | 7914 ft | 165 kts | 232° |
| 2026-05-06 15:14 | 54.32152 | -1.76430 | 7948 ft | 162 kts | 240° |
| 2026-05-06 15:14 | 54.31698 | -1.78194 | 7961 ft | 162 kts | 247° |
| 2026-05-06 15:14 | 54.31077 | -1.79797 | 7953 ft | 163 kts | 230° |
| 2026-05-06 15:14 | 54.30304 | -1.81224 | 7956 ft | 163 kts | 227° |
| 2026-05-06 15:15 | 54.29519 | -1.82642 | 7954 ft | 164 kts | 228° |
| 2026-05-06 15:15 | 54.28747 | -1.84054 | 7955 ft | 164 kts | 228° |
| 2026-05-06 15:15 | 54.27966 | -1.85492 | 7955 ft | 165 kts | 228° |
| 2026-05-06 15:15 | 54.27185 | -1.86928 | 7954 ft | 165 kts | 228° |
| 2026-05-06 15:16 | 54.26406 | -1.88365 | 7954 ft | 164 kts | 228° |
| 2026-05-06 15:16 | 54.25625 | -1.89802 | 7954 ft | 164 kts | 228° |
| 2026-05-06 15:16 | 54.24857 | -1.91213 | 7954 ft | 164 kts | 228° |
| 2026-05-06 15:16 | 54.24080 | -1.92641 | 7956 ft | 164 kts | 228° |
| 2026-05-06 15:17 | 54.23299 | -1.94077 | 7955 ft | 165 kts | 228° |
| 2026-05-06 15:17 | 54.22517 | -1.95513 | 7954 ft | 165 kts | 228° |
| 2026-05-06 15:17 | 54.21736 | -1.96947 | 7954 ft | 164 kts | 228° |
| 2026-05-06 15:17 | 54.20959 | -1.98373 | 7953 ft | 164 kts | 228° |
| 2026-05-06 15:18 | 54.20181 | -1.99797 | 7952 ft | 163 kts | 228° |
| 2026-05-06 15:18 | 54.19415 | -2.01201 | 7951 ft | 163 kts | 228° |
| 2026-05-06 15:18 | 54.18642 | -2.02617 | 7951 ft | 163 kts | 228° |
| 2026-05-06 15:18 | 54.17870 | -2.04029 | 7951 ft | 163 kts | 228° |
| 2026-05-06 15:19 | 54.17096 | -2.05443 | 7951 ft | 163 kts | 228° |
| 2026-05-06 15:19 | 54.16322 | -2.06853 | 7952 ft | 163 kts | 228° |
| 2026-05-06 15:19 | 54.15545 | -2.08273 | 7951 ft | 163 kts | 228° |
| 2026-05-06 15:19 | 54.14782 | -2.09672 | 7952 ft | 163 kts | 228° |
| 2026-05-06 15:20 | 54.14000 | -2.11090 | 7952 ft | 163 kts | 227° |
| 2026-05-06 15:20 | 54.13222 | -2.12512 | 7954 ft | 164 kts | 229° |
| 2026-05-06 15:20 | 54.12441 | -2.13943 | 7954 ft | 164 kts | 228° |
| 2026-05-06 15:20 | 54.11666 | -2.15339 | 7954 ft | 164 kts | 227° |
| 2026-05-06 15:21 | 54.10889 | -2.16753 | 7953 ft | 163 kts | 227° |
| 2026-05-06 15:21 | 54.10112 | -2.18173 | 7970 ft | 162 kts | 229° |
| 2026-05-06 15:21 | 54.09324 | -2.19509 | 7944 ft | 164 kts | 214° |
| 2026-05-06 15:21 | 54.08240 | -2.20127 | 7949 ft | 164 kts | 197° |
| 2026-05-06 15:22 | 54.07193 | -2.20879 | 7953 ft | 163 kts | 215° |
| 2026-05-06 15:22 | 54.06325 | -2.22123 | 7957 ft | 163 kts | 224° |
| 2026-05-06 15:22 | 54.05767 | -2.23736 | 7960 ft | 161 kts | 263° |
| 2026-05-06 15:22 | 54.05858 | -2.25626 | 7967 ft | 161 kts | 278° |
| 2026-05-06 15:23 | 54.06010 | -2.27504 | 7961 ft | 162 kts | 278° |
| 2026-05-06 15:23 | 54.06156 | -2.29413 | 7961 ft | 162 kts | 275° |
| 2026-05-06 15:23 | 54.06113 | -2.31352 | 7962 ft | 167 kts | 261° |
| 2026-05-06 15:23 | 54.05771 | -2.33261 | 7958 ft | 170 kts | 243° |
| 2026-05-06 15:24 | 54.05112 | -2.34949 | 7960 ft | 172 kts | 234° |
| 2026-05-06 15:24 | 54.04386 | -2.36557 | 7962 ft | 173 kts | 233° |
| 2026-05-06 15:24 | 54.03650 | -2.38189 | 7961 ft | 174 kts | 233° |
| 2026-05-06 15:24 | 54.02914 | -2.39834 | 7959 ft | 175 kts | 234° |
| 2026-05-06 15:25 | 54.02172 | -2.41480 | 7960 ft | 175 kts | 231° |
| 2026-05-06 15:25 | 54.01198 | -2.42716 | 7961 ft | 177 kts | 206° |
| 2026-05-06 15:25 | 54.00016 | -2.43197 | 7949 ft | 179 kts | 183° |
| 2026-05-06 15:25 | 53.98780 | -2.42957 | 7948 ft | 179 kts | 172° |
| 2026-05-06 15:26 | 53.97548 | -2.42643 | 7951 ft | 179 kts | 173° |
| 2026-05-06 15:26 | 53.96309 | -2.42334 | 7952 ft | 180 kts | 173° |
| 2026-05-06 15:26 | 53.95069 | -2.42020 | 7952 ft | 180 kts | 173° |
| 2026-05-06 15:26 | 53.93840 | -2.41707 | 7952 ft | 180 kts | 173° |
| 2026-05-06 15:27 | 53.92596 | -2.41392 | 7952 ft | 180 kts | 173° |
| 2026-05-06 15:27 | 53.91355 | -2.41078 | 7952 ft | 180 kts | 173° |
| 2026-05-06 15:27 | 53.90116 | -2.40766 | 7952 ft | 180 kts | 173° |
| 2026-05-06 15:27 | 53.88876 | -2.40452 | 7952 ft | 180 kts | 173° |
| 2026-05-06 15:28 | 53.87651 | -2.40143 | 7952 ft | 180 kts | 173° |
| 2026-05-06 15:28 | 53.86412 | -2.39831 | 7953 ft | 180 kts | 173° |
| 2026-05-06 15:28 | 53.85166 | -2.39517 | 7952 ft | 180 kts | 173° |
| 2026-05-06 15:28 | 53.83925 | -2.39205 | 7953 ft | 180 kts | 173° |
| 2026-05-06 15:29 | 53.82681 | -2.38891 | 7954 ft | 181 kts | 173° |
| 2026-05-06 15:29 | 53.81438 | -2.38577 | 7953 ft | 181 kts | 173° |
| 2026-05-06 15:29 | 53.80213 | -2.38270 | 7975 ft | 179 kts | 173° |
| 2026-05-06 15:29 | 53.78977 | -2.37959 | 7981 ft | 180 kts | 173° |
| 2026-05-06 15:30 | 53.77732 | -2.37646 | 7979 ft | 180 kts | 173° |
| 2026-05-06 15:30 | 53.76492 | -2.37332 | 7978 ft | 180 kts | 173° |
| 2026-05-06 15:30 | 53.75267 | -2.37026 | 7975 ft | 180 kts | 173° |
| 2026-05-06 15:30 | 53.74027 | -2.36718 | 7974 ft | 180 kts | 173° |
| 2026-05-06 15:31 | 53.72790 | -2.36408 | 7974 ft | 180 kts | 173° |
| 2026-05-06 15:31 | 53.71547 | -2.36096 | 7974 ft | 180 kts | 173° |
| 2026-05-06 15:31 | 53.70308 | -2.35786 | 7974 ft | 180 kts | 173° |
| 2026-05-06 15:32 | 53.67824 | -2.35164 | 7974 ft | 180 kts | 173° |
| 2026-05-06 15:32 | 53.66598 | -2.34856 | 7976 ft | 180 kts | 172° |
| 2026-05-06 15:32 | 53.65516 | -2.33865 | 7973 ft | 181 kts | 131° |
| 2026-05-06 15:32 | 53.65065 | -2.31899 | 7975 ft | 182 kts | 98° |
| 2026-05-06 15:33 | 53.64915 | -2.29777 | 7977 ft | 182 kts | 97° |
| 2026-05-06 15:33 | 53.64764 | -2.27669 | 7979 ft | 183 kts | 97° |
| 2026-05-06 15:33 | 53.64602 | -2.25542 | 7981 ft | 183 kts | 98° |
| 2026-05-06 15:33 | 53.64431 | -2.23412 | 7981 ft | 183 kts | 98° |
| 2026-05-06 15:34 | 53.64250 | -2.21275 | 7983 ft | 183 kts | 98° |
| 2026-05-06 15:34 | 53.64061 | -2.19144 | 7986 ft | 183 kts | 99° |
| 2026-05-06 15:34 | 53.64140 | -2.17048 | 7796 ft | 190 kts | 54° |
| 2026-05-06 15:34 | 53.65230 | -2.16941 | 7758 ft | 177 kts | 304° |
| 2026-05-06 15:35 | 53.65323 | -2.18883 | 7897 ft | 166 kts | 264° |
| 2026-05-06 15:35 | 53.65166 | -2.20798 | 8021 ft | 162 kts | 260° |
| 2026-05-06 15:35 | 53.64906 | -2.22648 | 8016 ft | 166 kts | 245° |
| 2026-05-06 15:35 | 53.64132 | -2.24027 | 8120 ft | 163 kts | 217° |
| 2026-05-06 15:36 | 53.63165 | -2.25152 | 8006 ft | 174 kts | 216° |
| 2026-05-06 15:36 | 53.62193 | -2.26384 | 7990 ft | 174 kts | 227° |
| 2026-05-06 15:36 | 53.61371 | -2.27847 | 7993 ft | 175 kts | 227° |
| 2026-05-06 15:36 | 53.60522 | -2.29325 | 7992 ft | 176 kts | 227° |
| 2026-05-06 15:37 | 53.59670 | -2.30807 | 7992 ft | 176 kts | 227° |
| 2026-05-06 15:37 | 53.58815 | -2.32297 | 7992 ft | 176 kts | 227° |
| 2026-05-06 15:37 | 53.57960 | -2.33784 | 7991 ft | 177 kts | 227° |
| 2026-05-06 15:37 | 53.57095 | -2.35255 | 7991 ft | 176 kts | 225° |
| 2026-05-06 15:38 | 53.56132 | -2.36435 | 7984 ft | 172 kts | 205° |
| 2026-05-06 15:38 | 53.55038 | -2.37129 | 7980 ft | 164 kts | 201° |
| 2026-05-06 15:38 | 53.53983 | -2.37764 | 7977 ft | 158 kts | 201° |
| 2026-05-06 15:38 | 53.52962 | -2.38372 | 7970 ft | 153 kts | 201° |
| 2026-05-06 15:39 | 53.51967 | -2.38960 | 7978 ft | 150 kts | 201° |
| 2026-05-06 15:39 | 53.50996 | -2.39531 | 7975 ft | 148 kts | 201° |
| 2026-05-06 15:39 | 53.50033 | -2.40098 | 7972 ft | 146 kts | 201° |
| 2026-05-06 15:39 | 53.49079 | -2.40660 | 7976 ft | 144 kts | 201° |
| 2026-05-06 15:40 | 53.48132 | -2.41216 | 7975 ft | 143 kts | 201° |
| 2026-05-06 15:40 | 53.47192 | -2.41767 | 7976 ft | 142 kts | 201° |
| 2026-05-06 15:40 | 53.46268 | -2.42309 | 7973 ft | 142 kts | 201° |
| 2026-05-06 15:40 | 53.45339 | -2.42853 | 7972 ft | 141 kts | 201° |
| 2026-05-06 15:41 | 53.44410 | -2.43398 | 7972 ft | 141 kts | 201° |
| 2026-05-06 15:41 | 53.43480 | -2.43942 | 7973 ft | 141 kts | 201° |
| 2026-05-06 15:41 | 53.42565 | -2.44477 | 7970 ft | 141 kts | 201° |
| 2026-05-06 15:41 | 53.41638 | -2.45020 | 7973 ft | 141 kts | 201° |
| 2026-05-06 15:42 | 53.40712 | -2.45563 | 7972 ft | 141 kts | 201° |
| 2026-05-06 15:42 | 53.39791 | -2.46104 | 7968 ft | 140 kts | 201° |
| 2026-05-06 15:42 | 53.38871 | -2.46652 | 7970 ft | 140 kts | 201° |
| 2026-05-06 15:42 | 53.37951 | -2.47210 | 7976 ft | 140 kts | 202° |
| 2026-05-06 15:43 | 53.37038 | -2.47772 | 7974 ft | 140 kts | 202° |
| 2026-05-06 15:43 | 53.36126 | -2.48342 | 7976 ft | 140 kts | 202° |
| 2026-05-06 15:43 | 53.35228 | -2.48911 | 7976 ft | 140 kts | 202° |
| 2026-05-06 15:43 | 53.34344 | -2.49420 | 7833 ft | 129 kts | 198° |
| 2026-05-06 15:44 | 53.33472 | -2.49773 | 7516 ft | 128 kts | 193° |
| 2026-05-06 15:44 | 53.32583 | -2.50035 | 7201 ft | 132 kts | 191° |
| 2026-05-06 15:44 | 53.31688 | -2.50312 | 6946 ft | 126 kts | 199° |
| 2026-05-06 15:44 | 53.30845 | -2.50748 | 6602 ft | 128 kts | 199° |
| 2026-05-06 15:45 | 53.30009 | -2.51185 | 6326 ft | 128 kts | 196° |
| 2026-05-06 15:45 | 53.29108 | -2.51417 | 6029 ft | 129 kts | 186° |
| 2026-05-06 15:45 | 53.28222 | -2.51400 | 5812 ft | 126 kts | 176° |
| 2026-05-06 15:45 | 53.27351 | -2.51258 | 5558 ft | 124 kts | 186° |
| 2026-05-06 15:46 | 53.26487 | -2.51463 | 5216 ft | 130 kts | 191° |
| 2026-05-06 15:46 | 53.25571 | -2.51711 | 4867 ft | 134 kts | 189° |
| 2026-05-06 15:46 | 53.24659 | -2.51858 | 4715 ft | 128 kts | 185° |
| 2026-05-06 15:46 | 53.23805 | -2.51865 | 4551 ft | 124 kts | 180° |
| 2026-05-06 15:47 | 53.22917 | -2.51660 | 4139 ft | 133 kts | 165° |
| 2026-05-06 15:47 | 53.22352 | -2.51236 | 3905 ft | 134 kts | 145° |
| 2026-05-06 15:47 | 53.21953 | -2.49844 | 3452 ft | 142 kts | 86° |
| 2026-05-06 15:47 | 53.22721 | -2.48288 | 3004 ft | 136 kts | 18° |
| 2026-05-06 15:48 | 53.23617 | -2.47845 | 2642 ft | 131 kts | 14° |
| 2026-05-06 15:48 | 53.24206 | -2.47600 | 2346 ft | 132 kts | 11° |
| 2026-05-06 15:48 | 53.25210 | -2.46651 | 2019 ft | 119 kts | 44° |
| 2026-05-06 15:48 | 53.25604 | -2.46011 | 1882 ft | 115 kts | 43° |
| 2026-05-06 15:49 | 53.26212 | -2.45068 | 1846 ft | 131 kts | 40° |
| 2026-05-06 15:49 | 53.26998 | -2.44102 | 1817 ft | 146 kts | 37° |
| 2026-05-06 15:49 | 53.27625 | -2.42845 | 1937 ft | 135 kts | 52° |
| 2026-05-06 15:49 | 53.28209 | -2.41604 | 1774 ft | 134 kts | 51° |
| 2026-05-06 15:50 | 53.28780 | -2.40403 | 1601 ft | 131 kts | 51° |
| 2026-05-06 15:50 | 53.29313 | -2.39279 | 1434 ft | 114 kts | 50° |
| 2026-05-06 15:50 | 53.29777 | -2.38305 | 1289 ft | 102 kts | 50° |
| 2026-05-06 15:50 | 53.30207 | -2.37406 | 1150 ft | 97 kts | 52° |
| 2026-05-06 15:51 | 53.30587 | -2.36511 | 1035 ft | 92 kts | 54° |
| 2026-05-06 15:51 | 53.30954 | -2.35683 | 947 ft | 90 kts | 48° |
| 2026-05-06 15:51 | 53.31380 | -2.34899 | 807 ft | 91 kts | 49° |
| 2026-05-06 15:51 | 53.31718 | -2.34145 | 773 ft | 73 kts | 54° |
| 2026-05-06 15:52 | 53.32031 | -2.33482 | 651 ft | 72 kts | 45° |
| 2026-05-06 15:52 | 53.32356 | -2.32821 | 584 ft | 79 kts | 42° |
| 2026-05-06 15:52 | 53.32704 | -2.32076 | 506 ft | 82 kts | 49° |
| 2026-05-06 15:52 | 53.33036 | -2.31400 | 326 ft | 78 kts | 49° |
| 2026-05-06 15:53 | 53.33366 | -2.30720 | 235 ft | 71 kts | 50° |
| 2026-05-06 15:53 | 53.33650 | -2.30127 | 230 ft | 58 kts | 48° |
| 2026-05-06 15:53 | 53.33889 | -2.29635 | 234 ft | 52 kts | 51° |
| 2026-05-06 15:53 | 53.34099 | -2.29205 | 242 ft | 46 kts | 52° |
| 2026-05-06 15:54 | 53.34279 | -2.28827 | 245 ft | 37 kts | 51° |
| 2026-05-06 15:54 | 53.34476 | -2.28556 | 250 ft | 33 kts | 25° |
| 2026-05-06 15:54 | 53.34612 | -2.28464 | 254 ft | 9 kts | 26° |
| 2026-05-06 15:54 | 53.34626 | -2.28455 | 254 ft | 0 kts | 21° |
| 2026-05-06 15:55 | 53.34633 | -2.28450 | 254 ft | 6 kts | 23° |
| 2026-05-06 15:55 | 53.34704 | -2.28398 | 255 ft | 14 kts | 36° |
| 2026-05-06 15:55 | 53.34773 | -2.28273 | 255 ft | 19 kts | 52° |
| 2026-05-06 15:55 | 53.34875 | -2.28063 | 254 ft | 25 kts | 51° |
| 2026-05-06 15:56 | 53.34954 | -2.27968 | 252 ft | 8 kts | 331° |
| 2026-05-06 15:56 | 53.34956 | -2.27970 | 252 ft | 0 kts | 332° |
| 2026-05-06 15:56 | 53.35060 | -2.28104 | 250 ft | 50 kts | 323° |
| 2026-05-06 15:56 | 53.35200 | -2.28199 | 248 ft | 2 kts | 7° |
| 2026-05-06 15:57 | 53.35220 | -2.28197 | 248 ft | 18 kts | 3° |
| 2026-05-06 15:57 | 53.35238 | -2.28195 | 248 ft | 0 kts | 5° |
| 2026-05-06 15:58 | 53.35288 | -2.28188 | 248 ft | 19 kts | 5° |
| 2026-05-06 15:58 | 53.35422 | -2.28160 | 248 ft | 18 kts | 7° |
| 2026-05-06 15:59 | 53.35537 | -2.28134 | 248 ft | 16 kts | 1° |
| 2026-05-06 15:59 | 53.35637 | -2.28109 | 247 ft | 13 kts | 7° |
| 2026-05-06 15:59 | 53.35725 | -2.28091 | 247 ft | 13 kts | 351° |
| 2026-05-06 15:59 | 53.35807 | -2.28106 | 247 ft | 10 kts | 338° |
| 2026-05-06 16:00 | 53.35814 | -2.28114 | 247 ft | 3 kts | 296° |
| 2026-05-06 16:00 | 53.35813 | -2.28221 | 248 ft | 0 kts | 269° |